sensor_id;sensor_type;location;lat;lon;timestamp;temperature;humidity
2054;DHT22;1032;52.542;13.440;2022-10-26T00:00:31;12.40;99.90
2054;DHT22;1032;52.542;13.440;2022-10-26T00:02:58;12.30;99.90
2054;DHT22;1032;52.542;13.440;2022-10-26T00:05:24;12.50;99.90
2054;DHT22;1032;52.542;13.440;2022-10-26T00:07:51;12.30;99.90
2054;DHT22;1032;52.542;13.440;2022-10-26T00:10:17;11.70;99.90
2054;DHT22;1032;52.542;13.440;2022-10-26T00:12:47;12.50;99.90
2054;DHT22;1032;52.542;13.440;2022-10-26T00:15:15;12.10;99.90
2054;DHT22;1032;52.542;13.440;2022-10-26T00:17:43;12.00;99.90
2054;DHT22;1032;52.542;13.440;2022-10-26T00:20:11;11.90;99.90
2054;DHT22;1032;52.542;13.440;2022-10-26T00:22:37;12.00;99.90
2054;DHT22;1032;52.542;13.440;2022-10-26T00:25:05;11.60;99.90
2054;DHT22;1032;52.542;13.440;2022-10-26T00:27:32;11.90;99.90
2054;DHT22;1032;52.542;13.440;2022-10-26T00:29:58;12.20;99.90
2054;DHT22;1032;52.542;13.440;2022-10-26T00:32:25;12.00;99.90
2054;DHT22;1032;52.542;13.440;2022-10-26T00:34:53;12.00;99.90
2054;DHT22;1032;52.542;13.440;2022-10-26T00:37:20;11.90;99.90
2054;DHT22;1032;52.542;13.440;2022-10-26T00:39:46;11.70;99.90
2054;DHT22;1032;52.542;13.440;2022-10-26T00:42:16;11.40;99.90
2054;DHT22;1032;52.542;13.440;2022-10-26T00:44:58;11.90;99.90
2054;DHT22;1032;52.542;13.440;2022-10-26T00:47:34;11.80;99.90
2054;DHT22;1032;52.542;13.440;2022-10-26T00:50:07;11.80;99.90
2054;DHT22;1032;52.542;13.440;2022-10-26T00:52:34;11.80;99.90
2054;DHT22;1032;52.542;13.440;2022-10-26T00:55:03;11.70;99.90
2054;DHT22;1032;52.542;13.440;2022-10-26T00:57:30;11.90;99.90
2054;DHT22;1032;52.542;13.440;2022-10-26T00:59:58;11.80;99.90
2054;DHT22;1032;52.542;13.440;2022-10-26T01:02:25;11.30;99.90
2054;DHT22;1032;52.542;13.440;2022-10-26T01:04:52;11.70;99.90
2054;DHT22;1032;52.542;13.440;2022-10-26T01:07:21;11.60;99.90
2054;DHT22;1032;52.542;13.440;2022-10-26T01:09:48;11.70;99.90
2054;DHT22;1032;52.542;13.440;2022-10-26T01:12:14;12.10;99.90
2054;DHT22;1032;52.542;13.440;2022-10-26T01:14:41;11.40;99.90
2054;DHT22;1032;52.542;13.440;2022-10-26T01:17:19;12.10;99.90
2054;DHT22;1032;52.542;13.440;2022-10-26T01:23:02;11.80;99.90
2054;DHT22;1032;52.542;13.440;2022-10-26T01:25:43;11.70;99.90
2054;DHT22;1032;52.542;13.440;2022-10-26T01:28:26;11.70;99.90
2054;DHT22;1032;52.542;13.440;2022-10-26T01:30:59;11.40;99.90
2054;DHT22;1032;52.542;13.440;2022-10-26T01:33:31;11.60;99.90
2054;DHT22;1032;52.542;13.440;2022-10-26T01:36:08;11.50;99.90
2054;DHT22;1032;52.542;13.440;2022-10-26T01:38:42;11.40;99.90
2054;DHT22;1032;52.542;13.440;2022-10-26T01:41:13;11.60;99.90
2054;DHT22;1032;52.542;13.440;2022-10-26T01:43:45;11.50;99.90
2054;DHT22;1032;52.542;13.440;2022-10-26T01:46:16;11.50;99.90
2054;DHT22;1032;52.542;13.440;2022-10-26T01:48:44;11.50;99.90
2054;DHT22;1032;52.542;13.440;2022-10-26T01:51:12;11.50;99.90
2054;DHT22;1032;52.542;13.440;2022-10-26T01:53:43;11.50;99.90
2054;DHT22;1032;52.542;13.440;2022-10-26T01:56:13;11.20;99.90
2054;DHT22;1032;52.542;13.440;2022-10-26T01:58:52;11.00;99.90
2054;DHT22;1032;52.542;13.440;2022-10-26T02:01:43;12.00;99.90
2054;DHT22;1032;52.542;13.440;2022-10-26T02:04:24;11.30;99.90
2054;DHT22;1032;52.542;13.440;2022-10-26T02:06:59;11.30;99.90
2054;DHT22;1032;52.542;13.440;2022-10-26T02:09:31;11.90;99.90
2054;DHT22;1032;52.542;13.440;2022-10-26T02:12:06;11.50;99.90
2054;DHT22;1032;52.542;13.440;2022-10-26T02:14:45;11.30;99.90
2054;DHT22;1032;52.542;13.440;2022-10-26T02:17:18;11.30;99.90
2054;DHT22;1032;52.542;13.440;2022-10-26T02:19:50;11.20;99.90
2054;DHT22;1032;52.542;13.440;2022-10-26T02:22:22;11.50;99.90
2054;DHT22;1032;52.542;13.440;2022-10-26T02:24:51;10.80;99.90
2054;DHT22;1032;52.542;13.440;2022-10-26T02:27:21;11.10;99.90
2054;DHT22;1032;52.542;13.440;2022-10-26T02:29:50;11.10;99.90
2054;DHT22;1032;52.542;13.440;2022-10-26T02:32:21;11.20;99.90
2054;DHT22;1032;52.542;13.440;2022-10-26T02:34:50;11.20;99.90
2054;DHT22;1032;52.542;13.440;2022-10-26T02:37:19;10.70;99.90
2054;DHT22;1032;52.542;13.440;2022-10-26T02:39:48;11.10;99.90
2054;DHT22;1032;52.542;13.440;2022-10-26T02:42:17;11.30;99.90
2054;DHT22;1032;52.542;13.440;2022-10-26T02:44:49;11.60;99.90
2054;DHT22;1032;52.542;13.440;2022-10-26T02:47:18;11.50;99.90
2054;DHT22;1032;52.542;13.440;2022-10-26T02:49:46;11.40;99.90
2054;DHT22;1032;52.542;13.440;2022-10-26T02:52:16;11.20;99.90
2054;DHT22;1032;52.542;13.440;2022-10-26T02:54:51;11.20;99.90
2054;DHT22;1032;52.542;13.440;2022-10-26T02:57:22;11.30;99.90
2054;DHT22;1032;52.542;13.440;2022-10-26T02:59:50;11.20;99.90
2054;DHT22;1032;52.542;13.440;2022-10-26T03:02:19;11.30;99.90
2054;DHT22;1032;52.542;13.440;2022-10-26T03:04:49;11.50;99.90
2054;DHT22;1032;52.542;13.440;2022-10-26T03:07:20;11.10;99.90
2054;DHT22;1032;52.542;13.440;2022-10-26T03:09:46;11.00;99.90
2054;DHT22;1032;52.542;13.440;2022-10-26T03:12:13;10.90;99.90
2054;DHT22;1032;52.542;13.440;2022-10-26T03:14:40;11.20;99.90
2054;DHT22;1032;52.542;13.440;2022-10-26T03:17:07;11.00;99.90
2054;DHT22;1032;52.542;13.440;2022-10-26T03:19:35;11.10;99.90
2054;DHT22;1032;52.542;13.440;2022-10-26T03:22:01;11.10;99.90
2054;DHT22;1032;52.542;13.440;2022-10-26T03:24:28;11.20;99.90
2054;DHT22;1032;52.542;13.440;2022-10-26T03:26:54;11.10;99.90
2054;DHT22;1032;52.542;13.440;2022-10-26T03:29:21;11.10;99.90
2054;DHT22;1032;52.542;13.440;2022-10-26T03:31:48;11.00;99.90
2054;DHT22;1032;52.542;13.440;2022-10-26T03:34:18;11.30;99.90
2054;DHT22;1032;52.542;13.440;2022-10-26T03:36:46;11.50;99.90
2054;DHT22;1032;52.542;13.440;2022-10-26T03:39:13;11.10;99.90
2054;DHT22;1032;52.542;13.440;2022-10-26T03:41:39;11.00;99.90
2054;DHT22;1032;52.542;13.440;2022-10-26T03:44:06;10.60;99.90
2054;DHT22;1032;52.542;13.440;2022-10-26T03:46:32;11.70;99.90
2054;DHT22;1032;52.542;13.440;2022-10-26T03:48:59;11.10;99.90
2054;DHT22;1032;52.542;13.440;2022-10-26T03:51:25;11.20;99.90
2054;DHT22;1032;52.542;13.440;2022-10-26T03:53:53;11.10;99.90
2054;DHT22;1032;52.542;13.440;2022-10-26T03:56:20;10.70;99.90
2054;DHT22;1032;52.542;13.440;2022-10-26T03:58:47;11.10;99.90
2054;DHT22;1032;52.542;13.440;2022-10-26T04:01:13;11.20;99.90
2054;DHT22;1032;52.542;13.440;2022-10-26T04:03:40;10.50;99.90
2054;DHT22;1032;52.542;13.440;2022-10-26T04:06:07;11.10;99.90
2054;DHT22;1032;52.542;13.440;2022-10-26T04:08:33;11.40;99.90
2054;DHT22;1032;52.542;13.440;2022-10-26T04:11:01;11.60;99.90
2054;DHT22;1032;52.542;13.440;2022-10-26T04:13:28;11.00;99.90
2054;DHT22;1032;52.542;13.440;2022-10-26T04:15:54;11.10;99.90
2054;DHT22;1032;52.542;13.440;2022-10-26T04:18:21;11.30;99.90
2054;DHT22;1032;52.542;13.440;2022-10-26T04:20:47;11.10;99.90
2054;DHT22;1032;52.542;13.440;2022-10-26T04:23:15;11.10;99.90
2054;DHT22;1032;52.542;13.440;2022-10-26T04:25:43;11.20;99.90
2054;DHT22;1032;52.542;13.440;2022-10-26T04:28:12;11.10;99.90
2054;DHT22;1032;52.542;13.440;2022-10-26T04:30:39;11.00;99.90
2054;DHT22;1032;52.542;13.440;2022-10-26T04:33:06;10.60;99.90
2054;DHT22;1032;52.542;13.440;2022-10-26T04:35:33;10.90;99.90
2054;DHT22;1032;52.542;13.440;2022-10-26T04:38:00;10.90;99.90
2054;DHT22;1032;52.542;13.440;2022-10-26T04:40:28;11.20;99.90
2054;DHT22;1032;52.542;13.440;2022-10-26T04:42:55;11.10;99.90
2054;DHT22;1032;52.542;13.440;2022-10-26T04:45:23;10.50;99.90
2054;DHT22;1032;52.542;13.440;2022-10-26T04:48:00;11.00;99.90
2054;DHT22;1032;52.542;13.440;2022-10-26T04:50:27;10.90;99.90
2054;DHT22;1032;52.542;13.440;2022-10-26T04:52:53;10.90;99.90
2054;DHT22;1032;52.542;13.440;2022-10-26T04:55:20;11.00;99.90
2054;DHT22;1032;52.542;13.440;2022-10-26T04:57:47;11.20;99.90
2054;DHT22;1032;52.542;13.440;2022-10-26T05:00:13;11.00;99.90
2054;DHT22;1032;52.542;13.440;2022-10-26T05:02:41;11.20;99.90
2054;DHT22;1032;52.542;13.440;2022-10-26T05:05:09;11.20;99.90
2054;DHT22;1032;52.542;13.440;2022-10-26T05:07:36;11.30;99.90
2054;DHT22;1032;52.542;13.440;2022-10-26T05:10:03;11.20;99.90
2054;DHT22;1032;52.542;13.440;2022-10-26T05:12:30;10.90;99.90
2054;DHT22;1032;52.542;13.440;2022-10-26T05:14:56;10.70;99.90
2054;DHT22;1032;52.542;13.440;2022-10-26T05:17:23;10.70;99.90
2054;DHT22;1032;52.542;13.440;2022-10-26T05:19:51;10.90;99.90
2054;DHT22;1032;52.542;13.440;2022-10-26T05:22:20;10.50;99.90
2054;DHT22;1032;52.542;13.440;2022-10-26T05:24:46;10.90;99.90
2054;DHT22;1032;52.542;13.440;2022-10-26T05:27:13;10.90;99.90
2054;DHT22;1032;52.542;13.440;2022-10-26T05:29:40;10.90;99.90
2054;DHT22;1032;52.542;13.440;2022-10-26T05:32:06;10.60;99.90
2054;DHT22;1032;52.542;13.440;2022-10-26T05:34:33;10.90;99.90
2054;DHT22;1032;52.542;13.440;2022-10-26T05:37:01;11.00;99.90
2054;DHT22;1032;52.542;13.440;2022-10-26T05:39:27;11.10;99.90
2054;DHT22;1032;52.542;13.440;2022-10-26T05:41:54;11.10;99.90
2054;DHT22;1032;52.542;13.440;2022-10-26T05:44:21;10.80;99.90
2054;DHT22;1032;52.542;13.440;2022-10-26T05:46:47;10.90;99.90
2054;DHT22;1032;52.542;13.440;2022-10-26T05:49:14;10.80;99.90
2054;DHT22;1032;52.542;13.440;2022-10-26T05:51:41;11.10;99.90
2054;DHT22;1032;52.542;13.440;2022-10-26T05:54:08;10.40;99.90
2054;DHT22;1032;52.542;13.440;2022-10-26T05:56:37;10.70;99.90
2054;DHT22;1032;52.542;13.440;2022-10-26T05:59:09;10.90;99.90
2054;DHT22;1032;52.542;13.440;2022-10-26T06:01:46;11.00;99.90
2054;DHT22;1032;52.542;13.440;2022-10-26T06:04:25;11.00;99.90
2054;DHT22;1032;52.542;13.440;2022-10-26T06:06:55;10.90;99.90
2054;DHT22;1032;52.542;13.440;2022-10-26T06:09:24;11.30;99.90
2054;DHT22;1032;52.542;13.440;2022-10-26T06:11:52;11.00;99.90
2054;DHT22;1032;52.542;13.440;2022-10-26T06:14:20;10.80;99.90
2054;DHT22;1032;52.542;13.440;2022-10-26T06:16:57;11.10;99.90
2054;DHT22;1032;52.542;13.440;2022-10-26T06:19:42;10.70;99.90
2054;DHT22;1032;52.542;13.440;2022-10-26T06:22:23;10.80;99.90
2054;DHT22;1032;52.542;13.440;2022-10-26T06:25:01;11.10;99.90
2054;DHT22;1032;52.542;13.440;2022-10-26T06:27:37;10.90;99.90
2054;DHT22;1032;52.542;13.440;2022-10-26T06:30:09;10.90;99.90
2054;DHT22;1032;52.542;13.440;2022-10-26T06:32:37;10.60;99.90
2054;DHT22;1032;52.542;13.440;2022-10-26T06:35:29;10.70;99.90
2054;DHT22;1032;52.542;13.440;2022-10-26T06:38:02;11.10;99.90
2054;DHT22;1032;52.542;13.440;2022-10-26T06:40:32;11.10;99.90
2054;DHT22;1032;52.542;13.440;2022-10-26T06:43:00;11.00;99.90
2054;DHT22;1032;52.542;13.440;2022-10-26T06:45:28;11.10;99.90
2054;DHT22;1032;52.542;13.440;2022-10-26T06:48:01;11.00;99.90
2054;DHT22;1032;52.542;13.440;2022-10-26T06:50:33;11.10;99.90
2054;DHT22;1032;52.542;13.440;2022-10-26T06:53:13;11.60;99.90
2054;DHT22;1032;52.542;13.440;2022-10-26T06:55:44;10.90;99.90
2054;DHT22;1032;52.542;13.440;2022-10-26T06:58:14;11.10;99.90
2054;DHT22;1032;52.542;13.440;2022-10-26T07:00:43;11.20;99.90
2054;DHT22;1032;52.542;13.440;2022-10-26T07:03:10;11.30;99.90
2054;DHT22;1032;52.542;13.440;2022-10-26T07:05:37;11.30;99.90
2054;DHT22;1032;52.542;13.440;2022-10-26T07:08:04;10.70;99.90
2054;DHT22;1032;52.542;13.440;2022-10-26T07:10:30;11.30;99.90
2054;DHT22;1032;52.542;13.440;2022-10-26T07:13:00;11.40;99.90
2054;DHT22;1032;52.542;13.440;2022-10-26T07:15:27;11.00;99.90
2054;DHT22;1032;52.542;13.440;2022-10-26T07:17:53;11.20;99.90
2054;DHT22;1032;52.542;13.440;2022-10-26T07:20:20;11.30;99.90
2054;DHT22;1032;52.542;13.440;2022-10-26T07:22:50;11.50;99.90
2054;DHT22;1032;52.542;13.440;2022-10-26T07:25:17;12.00;99.90
2054;DHT22;1032;52.542;13.440;2022-10-26T07:27:44;11.50;99.90
2054;DHT22;1032;52.542;13.440;2022-10-26T07:30:12;11.80;99.90
2054;DHT22;1032;52.542;13.440;2022-10-26T07:32:39;11.50;99.90
2054;DHT22;1032;52.542;13.440;2022-10-26T07:35:06;11.70;99.90
2054;DHT22;1032;52.542;13.440;2022-10-26T07:37:33;11.60;99.90
2054;DHT22;1032;52.542;13.440;2022-10-26T07:39:59;11.70;99.90
2054;DHT22;1032;52.542;13.440;2022-10-26T07:42:26;11.70;99.90
2054;DHT22;1032;52.542;13.440;2022-10-26T07:44:53;11.90;99.90
2054;DHT22;1032;52.542;13.440;2022-10-26T07:47:21;11.60;99.90
2054;DHT22;1032;52.542;13.440;2022-10-26T07:49:47;11.80;99.90
2054;DHT22;1032;52.542;13.440;2022-10-26T07:52:14;11.90;99.90
2054;DHT22;1032;52.542;13.440;2022-10-26T07:54:40;12.10;99.90
2054;DHT22;1032;52.542;13.440;2022-10-26T07:57:07;11.60;99.90
2054;DHT22;1032;52.542;13.440;2022-10-26T07:59:34;11.80;99.90
2054;DHT22;1032;52.542;13.440;2022-10-26T08:02:00;12.10;99.90
2054;DHT22;1032;52.542;13.440;2022-10-26T08:04:28;12.10;99.90
2054;DHT22;1032;52.542;13.440;2022-10-26T08:06:55;12.30;99.90
2054;DHT22;1032;52.542;13.440;2022-10-26T08:09:21;11.70;99.90
2054;DHT22;1032;52.542;13.440;2022-10-26T08:11:48;11.80;99.90
2054;DHT22;1032;52.542;13.440;2022-10-26T08:14:14;11.40;99.90
2054;DHT22;1032;52.542;13.440;2022-10-26T08:16:41;12.20;99.90
2054;DHT22;1032;52.542;13.440;2022-10-26T08:19:08;12.20;99.90
2054;DHT22;1032;52.542;13.440;2022-10-26T08:21:36;12.20;99.90
2054;DHT22;1032;52.542;13.440;2022-10-26T08:24:03;11.90;99.90
2054;DHT22;1032;52.542;13.440;2022-10-26T08:26:29;12.20;99.90
2054;DHT22;1032;52.542;13.440;2022-10-26T08:28:56;12.00;99.90
2054;DHT22;1032;52.542;13.440;2022-10-26T08:31:22;12.70;99.90
2054;DHT22;1032;52.542;13.440;2022-10-26T08:33:49;12.30;99.90
2054;DHT22;1032;52.542;13.440;2022-10-26T08:36:21;12.30;99.90
2054;DHT22;1032;52.542;13.440;2022-10-26T08:38:50;12.10;99.90
2054;DHT22;1032;52.542;13.440;2022-10-26T08:41:19;12.60;99.90
2054;DHT22;1032;52.542;13.440;2022-10-26T08:43:52;12.30;99.90
2054;DHT22;1032;52.542;13.440;2022-10-26T08:46:26;12.30;99.90
2054;DHT22;1032;52.542;13.440;2022-10-26T08:48:57;12.10;99.90
2054;DHT22;1032;52.542;13.440;2022-10-26T08:51:28;12.40;99.90
2054;DHT22;1032;52.542;13.440;2022-10-26T08:54:04;12.60;99.90
2054;DHT22;1032;52.542;13.440;2022-10-26T08:56:36;12.60;99.90
2054;DHT22;1032;52.542;13.440;2022-10-26T08:59:09;12.60;99.90
2054;DHT22;1032;52.542;13.440;2022-10-26T09:01:37;12.70;99.90
2054;DHT22;1032;52.542;13.440;2022-10-26T09:04:09;12.70;99.90
2054;DHT22;1032;52.542;13.440;2022-10-26T09:06:44;12.80;99.90
2054;DHT22;1032;52.542;13.440;2022-10-26T09:09:18;12.30;99.90
2054;DHT22;1032;52.542;13.440;2022-10-26T09:11:53;12.60;99.90
2054;DHT22;1032;52.542;13.440;2022-10-26T09:14:31;12.90;99.90
2054;DHT22;1032;52.542;13.440;2022-10-26T09:17:09;12.90;99.90
2054;DHT22;1032;52.542;13.440;2022-10-26T09:20:04;12.40;99.90
2054;DHT22;1032;52.542;13.440;2022-10-26T09:22:40;13.30;99.90
2054;DHT22;1032;52.542;13.440;2022-10-26T09:25:17;13.10;99.90
2054;DHT22;1032;52.542;13.440;2022-10-26T09:27:47;13.20;99.90
2054;DHT22;1032;52.542;13.440;2022-10-26T09:30:17;13.10;99.90
2054;DHT22;1032;52.542;13.440;2022-10-26T09:32:46;13.20;99.90
2054;DHT22;1032;52.542;13.440;2022-10-26T09:35:16;13.30;99.90
2054;DHT22;1032;52.542;13.440;2022-10-26T09:37:48;13.20;99.90
2054;DHT22;1032;52.542;13.440;2022-10-26T09:40:22;13.30;99.90
2054;DHT22;1032;52.542;13.440;2022-10-26T09:42:53;13.30;99.90
2054;DHT22;1032;52.542;13.440;2022-10-26T09:45:24;13.50;99.90
2054;DHT22;1032;52.542;13.440;2022-10-26T09:47:54;13.20;99.90
2054;DHT22;1032;52.542;13.440;2022-10-26T09:50:25;13.40;99.90
2054;DHT22;1032;52.542;13.440;2022-10-26T09:52:53;13.90;99.90
2054;DHT22;1032;52.542;13.440;2022-10-26T09:55:21;13.70;99.90
2054;DHT22;1032;52.542;13.440;2022-10-26T09:57:50;13.80;99.90
2054;DHT22;1032;52.542;13.440;2022-10-26T10:00:19;13.80;99.90
2054;DHT22;1032;52.542;13.440;2022-10-26T10:02:49;13.30;99.90
2054;DHT22;1032;52.542;13.440;2022-10-26T10:05:25;13.50;99.90
2054;DHT22;1032;52.542;13.440;2022-10-26T10:08:14;13.70;99.90
2054;DHT22;1032;52.542;13.440;2022-10-26T10:10:55;14.10;99.90
2054;DHT22;1032;52.542;13.440;2022-10-26T10:13:23;14.00;99.90
2054;DHT22;1032;52.542;13.440;2022-10-26T10:15:52;13.70;99.90
2054;DHT22;1032;52.542;13.440;2022-10-26T10:18:20;13.70;99.90
2054;DHT22;1032;52.542;13.440;2022-10-26T10:20:53;14.20;99.90
2054;DHT22;1032;52.542;13.440;2022-10-26T10:23:29;13.80;99.90
2054;DHT22;1032;52.542;13.440;2022-10-26T10:26:06;14.30;99.90
2054;DHT22;1032;52.542;13.440;2022-10-26T10:28:34;14.40;99.90
2054;DHT22;1032;52.542;13.440;2022-10-26T10:31:02;14.60;99.90
2054;DHT22;1032;52.542;13.440;2022-10-26T10:33:35;14.00;99.90
2054;DHT22;1032;52.542;13.440;2022-10-26T10:36:05;14.40;99.90
2054;DHT22;1032;52.542;13.440;2022-10-26T10:38:36;14.20;99.90
2054;DHT22;1032;52.542;13.440;2022-10-26T10:41:18;14.40;99.90
2054;DHT22;1032;52.542;13.440;2022-10-26T10:43:46;14.80;99.90
2054;DHT22;1032;52.542;13.440;2022-10-26T10:46:21;14.40;99.90
2054;DHT22;1032;52.542;13.440;2022-10-26T10:48:52;14.70;99.90
2054;DHT22;1032;52.542;13.440;2022-10-26T10:51:22;14.60;99.90
2054;DHT22;1032;52.542;13.440;2022-10-26T10:53:50;14.90;99.90
2054;DHT22;1032;52.542;13.440;2022-10-26T10:56:28;14.70;99.90
2054;DHT22;1032;52.542;13.440;2022-10-26T10:59:14;14.80;99.90
2054;DHT22;1032;52.542;13.440;2022-10-26T11:01:48;14.80;99.90
2054;DHT22;1032;52.542;13.440;2022-10-26T11:04:29;14.80;99.90
2054;DHT22;1032;52.542;13.440;2022-10-26T11:07:02;15.00;99.90
2054;DHT22;1032;52.542;13.440;2022-10-26T11:09:32;15.00;99.90
2054;DHT22;1032;52.542;13.440;2022-10-26T11:12:05;15.00;99.90
2054;DHT22;1032;52.542;13.440;2022-10-26T11:14:36;15.30;99.90
2054;DHT22;1032;52.542;13.440;2022-10-26T11:17:08;15.40;99.90
2054;DHT22;1032;52.542;13.440;2022-10-26T11:19:42;15.10;99.90
2054;DHT22;1032;52.542;13.440;2022-10-26T11:22:14;15.30;99.90
2054;DHT22;1032;52.542;13.440;2022-10-26T11:24:46;15.40;99.90
2054;DHT22;1032;52.542;13.440;2022-10-26T11:27:17;15.20;99.90
2054;DHT22;1032;52.542;13.440;2022-10-26T11:29:52;15.40;99.90
2054;DHT22;1032;52.542;13.440;2022-10-26T11:32:22;15.10;99.90
2054;DHT22;1032;52.542;13.440;2022-10-26T11:34:54;15.40;99.90
2054;DHT22;1032;52.542;13.440;2022-10-26T11:37:29;15.50;99.90
2054;DHT22;1032;52.542;13.440;2022-10-26T11:40:02;15.60;99.90
2054;DHT22;1032;52.542;13.440;2022-10-26T11:42:34;15.30;99.90
2054;DHT22;1032;52.542;13.440;2022-10-26T11:45:07;15.50;99.90
2054;DHT22;1032;52.542;13.440;2022-10-26T11:47:40;15.60;99.90
2054;DHT22;1032;52.542;13.440;2022-10-26T11:50:14;15.80;99.90
2054;DHT22;1032;52.542;13.440;2022-10-26T11:52:44;15.50;99.90
2054;DHT22;1032;52.542;13.440;2022-10-26T11:55:13;15.90;99.90
2054;DHT22;1032;52.542;13.440;2022-10-26T11:57:41;15.70;99.90
2054;DHT22;1032;52.542;13.440;2022-10-26T12:00:14;15.60;99.90
2054;DHT22;1032;52.542;13.440;2022-10-26T12:02:42;16.00;99.90
2054;DHT22;1032;52.542;13.440;2022-10-26T12:05:19;16.00;99.90
2054;DHT22;1032;52.542;13.440;2022-10-26T12:07:50;15.80;99.90
2054;DHT22;1032;52.542;13.440;2022-10-26T12:10:24;15.50;99.90
2054;DHT22;1032;52.542;13.440;2022-10-26T12:13:01;15.60;99.90
2054;DHT22;1032;52.542;13.440;2022-10-26T12:15:33;16.00;99.90
2054;DHT22;1032;52.542;13.440;2022-10-26T12:18:09;15.80;99.90
2054;DHT22;1032;52.542;13.440;2022-10-26T12:20:55;15.80;99.90
2054;DHT22;1032;52.542;13.440;2022-10-26T12:23:27;16.00;99.90
2054;DHT22;1032;52.542;13.440;2022-10-26T12:29:25;15.90;99.90
2054;DHT22;1032;52.542;13.440;2022-10-26T12:31:52;15.90;99.90
2054;DHT22;1032;52.542;13.440;2022-10-26T12:34:22;15.90;99.90
2054;DHT22;1032;52.542;13.440;2022-10-26T12:39:32;16.10;99.90
2054;DHT22;1032;52.542;13.440;2022-10-26T12:42:17;16.00;99.90
2054;DHT22;1032;52.542;13.440;2022-10-26T12:45:13;16.10;99.90
2054;DHT22;1032;52.542;13.440;2022-10-26T12:48:01;16.10;99.90
2054;DHT22;1032;52.542;13.440;2022-10-26T12:50:28;15.80;99.90
2054;DHT22;1032;52.542;13.440;2022-10-26T12:52:55;16.30;99.90
2054;DHT22;1032;52.542;13.440;2022-10-26T12:55:55;16.40;99.90
2054;DHT22;1032;52.542;13.440;2022-10-26T13:01:38;16.30;99.90
2054;DHT22;1032;52.542;13.440;2022-10-26T13:04:18;16.20;99.90
2054;DHT22;1032;52.542;13.440;2022-10-26T13:06:55;16.30;99.90
2054;DHT22;1032;52.542;13.440;2022-10-26T13:09:28;16.40;99.90
2054;DHT22;1032;52.542;13.440;2022-10-26T13:11:59;16.30;99.90
2054;DHT22;1032;52.542;13.440;2022-10-26T13:14:30;16.20;99.90
2054;DHT22;1032;52.542;13.440;2022-10-26T13:17:00;16.40;99.90
2054;DHT22;1032;52.542;13.440;2022-10-26T13:19:31;16.50;99.90
2054;DHT22;1032;52.542;13.440;2022-10-26T13:22:02;16.40;99.90
2054;DHT22;1032;52.542;13.440;2022-10-26T13:24:30;16.40;99.90
2054;DHT22;1032;52.542;13.440;2022-10-26T13:27:24;16.50;99.90
2054;DHT22;1032;52.542;13.440;2022-10-26T13:30:21;16.60;99.90
2054;DHT22;1032;52.542;13.440;2022-10-26T13:33:02;16.70;99.90
2054;DHT22;1032;52.542;13.440;2022-10-26T13:35:30;16.40;99.90
2054;DHT22;1032;52.542;13.440;2022-10-26T13:37:59;16.40;99.90
2054;DHT22;1032;52.542;13.440;2022-10-26T13:40:31;16.60;99.90
2054;DHT22;1032;52.542;13.440;2022-10-26T13:43:03;16.20;99.90
2054;DHT22;1032;52.542;13.440;2022-10-26T13:45:36;16.10;99.90
2054;DHT22;1032;52.542;13.440;2022-10-26T13:48:13;16.60;99.90
2054;DHT22;1032;52.542;13.440;2022-10-26T13:50:46;16.60;99.90
2054;DHT22;1032;52.542;13.440;2022-10-26T13:53:17;16.50;99.90
2054;DHT22;1032;52.542;13.440;2022-10-26T13:55:50;16.60;99.90
2054;DHT22;1032;52.542;13.440;2022-10-26T13:58:21;16.50;99.90
2054;DHT22;1032;52.542;13.440;2022-10-26T14:01:01;16.50;99.90
2054;DHT22;1032;52.542;13.440;2022-10-26T14:03:29;16.50;99.90
2054;DHT22;1032;52.542;13.440;2022-10-26T14:05:56;16.70;99.90
2054;DHT22;1032;52.542;13.440;2022-10-26T14:08:23;16.60;99.90
2054;DHT22;1032;52.542;13.440;2022-10-26T14:10:54;16.30;99.90
2054;DHT22;1032;52.542;13.440;2022-10-26T14:13:23;16.60;99.90
2054;DHT22;1032;52.542;13.440;2022-10-26T14:15:51;16.60;99.90
2054;DHT22;1032;52.542;13.440;2022-10-26T14:18:21;16.10;99.90
2054;DHT22;1032;52.542;13.440;2022-10-26T14:21:01;16.80;99.90
2054;DHT22;1032;52.542;13.440;2022-10-26T14:23:34;16.60;99.90
2054;DHT22;1032;52.542;13.440;2022-10-26T14:26:01;16.60;99.90
2054;DHT22;1032;52.542;13.440;2022-10-26T14:28:30;16.60;99.90
2054;DHT22;1032;52.542;13.440;2022-10-26T14:31:12;16.60;99.90
2054;DHT22;1032;52.542;13.440;2022-10-26T14:33:39;16.70;99.90
2054;DHT22;1032;52.542;13.440;2022-10-26T14:36:08;17.20;99.90
2054;DHT22;1032;52.542;13.440;2022-10-26T14:38:41;16.50;99.90
2054;DHT22;1032;52.542;13.440;2022-10-26T14:41:09;16.70;99.90
2054;DHT22;1032;52.542;13.440;2022-10-26T14:43:36;16.30;99.90
2054;DHT22;1032;52.542;13.440;2022-10-26T14:46:03;16.60;99.90
2054;DHT22;1032;52.542;13.440;2022-10-26T14:48:31;16.60;99.90
2054;DHT22;1032;52.542;13.440;2022-10-26T14:51:00;16.50;99.90
2054;DHT22;1032;52.542;13.440;2022-10-26T14:53:35;16.50;99.90
2054;DHT22;1032;52.542;13.440;2022-10-26T14:56:03;16.50;99.90
2054;DHT22;1032;52.542;13.440;2022-10-26T14:58:32;16.60;99.90
2054;DHT22;1032;52.542;13.440;2022-10-26T15:01:30;16.50;99.90
2054;DHT22;1032;52.542;13.440;2022-10-26T15:03:59;16.40;99.90
2054;DHT22;1032;52.542;13.440;2022-10-26T15:06:32;16.30;99.90
2054;DHT22;1032;52.542;13.440;2022-10-26T15:09:02;16.50;99.90
2054;DHT22;1032;52.542;13.440;2022-10-26T15:11:32;16.50;99.90
2054;DHT22;1032;52.542;13.440;2022-10-26T15:14:00;15.90;99.90
2054;DHT22;1032;52.542;13.440;2022-10-26T15:16:28;16.50;99.90
2054;DHT22;1032;52.542;13.440;2022-10-26T15:18:57;16.50;99.90
2054;DHT22;1032;52.542;13.440;2022-10-26T15:21:25;16.20;99.90
2054;DHT22;1032;52.542;13.440;2022-10-26T15:23:53;16.20;99.90
2054;DHT22;1032;52.542;13.440;2022-10-26T15:26:23;16.20;99.90
2054;DHT22;1032;52.542;13.440;2022-10-26T15:28:51;16.40;99.90
2054;DHT22;1032;52.542;13.440;2022-10-26T15:31:32;15.90;99.90
2054;DHT22;1032;52.542;13.440;2022-10-26T15:34:12;16.10;99.90
2054;DHT22;1032;52.542;13.440;2022-10-26T15:36:40;16.40;99.90
2054;DHT22;1032;52.542;13.440;2022-10-26T15:39:06;16.30;99.90
2054;DHT22;1032;52.542;13.440;2022-10-26T15:41:37;16.00;99.90
2054;DHT22;1032;52.542;13.440;2022-10-26T15:44:10;15.90;99.90
2054;DHT22;1032;52.542;13.440;2022-10-26T15:46:38;16.20;99.90
2054;DHT22;1032;52.542;13.440;2022-10-26T15:49:06;16.00;99.90
2054;DHT22;1032;52.542;13.440;2022-10-26T15:51:33;16.00;99.90
2054;DHT22;1032;52.542;13.440;2022-10-26T15:54:02;16.10;99.90
2054;DHT22;1032;52.542;13.440;2022-10-26T15:56:29;16.20;99.90
2054;DHT22;1032;52.542;13.440;2022-10-26T15:58:58;15.90;99.90
2054;DHT22;1032;52.542;13.440;2022-10-26T16:01:26;16.10;99.90
2054;DHT22;1032;52.542;13.440;2022-10-26T16:03:53;15.80;99.90
2054;DHT22;1032;52.542;13.440;2022-10-26T16:06:25;15.80;99.90
2054;DHT22;1032;52.542;13.440;2022-10-26T16:08:55;15.70;99.90
2054;DHT22;1032;52.542;13.440;2022-10-26T16:11:22;15.90;99.90
2054;DHT22;1032;52.542;13.440;2022-10-26T16:13:49;15.70;99.90
2054;DHT22;1032;52.542;13.440;2022-10-26T16:16:18;15.60;99.90
2054;DHT22;1032;52.542;13.440;2022-10-26T16:18:51;15.10;99.90